sensor_id;sensor_type;location;lat;lon;timestamp;P1;durP1;ratioP1;P2;durP2;ratioP2
21103;SDS011;10710;53.398;-1.514;2023-07-13T00:02:05;2.33;;;1.13;;
21103;SDS011;10710;53.398;-1.514;2023-07-13T00:04:50;1.77;;;1.20;;
21103;SDS011;10710;53.398;-1.514;2023-07-13T00:07:35;1.30;;;0.90;;
21103;SDS011;10710;53.398;-1.514;2023-07-13T00:10:20;1.98;;;1.05;;
21103;SDS011;10710;53.398;-1.514;2023-07-13T00:13:05;2.60;;;1.50;;
21103;SDS011;10710;53.398;-1.514;2023-07-13T00:15:49;4.50;;;1.20;;
21103;SDS011;10710;53.398;-1.514;2023-07-13T00:18:34;3.70;;;1.38;;
21103;SDS011;10710;53.398;-1.514;2023-07-13T00:21:18;3.47;;;1.42;;
21103;SDS011;10710;53.398;-1.514;2023-07-13T00:24:02;4.45;;;1.70;;
21103;SDS011;10710;53.398;-1.514;2023-07-13T00:26:47;1.75;;;1.00;;
21103;SDS011;10710;53.398;-1.514;2023-07-13T00:29:31;2.67;;;1.27;;
21103;SDS011;10710;53.398;-1.514;2023-07-13T00:32:17;4.10;;;1.48;;
21103;SDS011;10710;53.398;-1.514;2023-07-13T00:35:02;4.35;;;1.27;;
21103;SDS011;10710;53.398;-1.514;2023-07-13T00:37:48;1.88;;;0.90;;
21103;SDS011;10710;53.398;-1.514;2023-07-13T00:40:33;2.77;;;1.17;;
21103;SDS011;10710;53.398;-1.514;2023-07-13T00:43:19;4.68;;;1.58;;
21103;SDS011;10710;53.398;-1.514;2023-07-13T00:46:12;2.77;;;1.10;;
21103;SDS011;10710;53.398;-1.514;2023-07-13T00:49:04;9.05;;;1.58;;
21103;SDS011;10710;53.398;-1.514;2023-07-13T00:54:46;2.15;;;1.20;;
21103;SDS011;10710;53.398;-1.514;2023-07-13T00:57:32;5.40;;;1.40;;
21103;SDS011;10710;53.398;-1.514;2023-07-13T01:00:18;2.85;;;1.25;;
21103;SDS011;10710;53.398;-1.514;2023-07-13T01:03:04;5.33;;;1.50;;
21103;SDS011;10710;53.398;-1.514;2023-07-13T01:05:50;3.25;;;1.45;;
21103;SDS011;10710;53.398;-1.514;2023-07-13T01:08:37;2.20;;;1.20;;
21103;SDS011;10710;53.398;-1.514;2023-07-13T01:11:21;4.10;;;1.70;;
21103;SDS011;10710;53.398;-1.514;2023-07-13T01:14:06;3.83;;;1.30;;
21103;SDS011;10710;53.398;-1.514;2023-07-13T01:16:50;2.53;;;1.27;;
21103;SDS011;10710;53.398;-1.514;2023-07-13T01:19:37;4.47;;;1.15;;
21103;SDS011;10710;53.398;-1.514;2023-07-13T01:22:22;1.60;;;1.00;;
21103;SDS011;10710;53.398;-1.514;2023-07-13T01:25:10;2.83;;;1.45;;
21103;SDS011;10710;53.398;-1.514;2023-07-13T01:27:54;2.90;;;1.10;;
21103;SDS011;10710;53.398;-1.514;2023-07-13T01:30:39;4.60;;;1.23;;
21103;SDS011;10710;53.398;-1.514;2023-07-13T01:33:24;4.13;;;1.52;;
21103;SDS011;10710;53.398;-1.514;2023-07-13T01:36:10;4.07;;;1.27;;
21103;SDS011;10710;53.398;-1.514;2023-07-13T01:38:55;1.85;;;1.20;;
21103;SDS011;10710;53.398;-1.514;2023-07-13T01:41:39;1.48;;;1.15;;
21103;SDS011;10710;53.398;-1.514;2023-07-13T01:44:23;2.17;;;0.90;;
21103;SDS011;10710;53.398;-1.514;2023-07-13T01:47:08;1.85;;;1.02;;
21103;SDS011;10710;53.398;-1.514;2023-07-13T01:49:52;1.50;;;1.08;;
21103;SDS011;10710;53.398;-1.514;2023-07-13T01:52:37;3.38;;;1.20;;
21103;SDS011;10710;53.398;-1.514;2023-07-13T01:55:21;1.90;;;1.10;;
21103;SDS011;10710;53.398;-1.514;2023-07-13T01:58:06;3.17;;;1.30;;
21103;SDS011;10710;53.398;-1.514;2023-07-13T02:00:51;1.70;;;1.40;;
21103;SDS011;10710;53.398;-1.514;2023-07-13T02:03:35;3.13;;;1.20;;
21103;SDS011;10710;53.398;-1.514;2023-07-13T02:06:19;3.95;;;1.63;;
21103;SDS011;10710;53.398;-1.514;2023-07-13T02:09:03;3.70;;;1.67;;
21103;SDS011;10710;53.398;-1.514;2023-07-13T02:11:48;5.18;;;2.13;;
21103;SDS011;10710;53.398;-1.514;2023-07-13T02:14:32;5.85;;;2.65;;
21103;SDS011;10710;53.398;-1.514;2023-07-13T02:17:16;3.05;;;2.15;;
21103;SDS011;10710;53.398;-1.514;2023-07-13T02:20:00;4.45;;;1.90;;
21103;SDS011;10710;53.398;-1.514;2023-07-13T02:22:46;3.40;;;1.85;;
21103;SDS011;10710;53.398;-1.514;2023-07-13T02:25:30;3.78;;;1.70;;
21103;SDS011;10710;53.398;-1.514;2023-07-13T02:28:14;2.40;;;1.52;;
21103;SDS011;10710;53.398;-1.514;2023-07-13T02:31:06;4.63;;;2.00;;
21103;SDS011;10710;53.398;-1.514;2023-07-13T02:33:55;6.47;;;2.25;;
21103;SDS011;10710;53.398;-1.514;2023-07-13T02:36:39;4.35;;;1.95;;
21103;SDS011;10710;53.398;-1.514;2023-07-13T02:39:24;4.22;;;2.00;;
21103;SDS011;10710;53.398;-1.514;2023-07-13T02:42:08;4.85;;;2.00;;
21103;SDS011;10710;53.398;-1.514;2023-07-13T02:44:52;4.63;;;2.30;;
21103;SDS011;10710;53.398;-1.514;2023-07-13T02:47:37;4.97;;;2.05;;
21103;SDS011;10710;53.398;-1.514;2023-07-13T02:50:21;4.77;;;2.30;;
21103;SDS011;10710;53.398;-1.514;2023-07-13T02:53:05;5.63;;;2.05;;
21103;SDS011;10710;53.398;-1.514;2023-07-13T02:55:49;7.75;;;2.35;;
21103;SDS011;10710;53.398;-1.514;2023-07-13T02:58:34;4.30;;;2.70;;
21103;SDS011;10710;53.398;-1.514;2023-07-13T03:01:20;3.63;;;2.17;;
21103;SDS011;10710;53.398;-1.514;2023-07-13T03:04:05;3.72;;;2.15;;
21103;SDS011;10710;53.398;-1.514;2023-07-13T03:06:50;6.05;;;2.65;;
21103;SDS011;10710;53.398;-1.514;2023-07-13T03:09:35;7.00;;;2.63;;
21103;SDS011;10710;53.398;-1.514;2023-07-13T03:12:20;6.85;;;2.75;;
21103;SDS011;10710;53.398;-1.514;2023-07-13T03:15:04;8.47;;;2.33;;
21103;SDS011;10710;53.398;-1.514;2023-07-13T03:17:49;4.90;;;2.47;;
21103;SDS011;10710;53.398;-1.514;2023-07-13T03:20:34;9.10;;;2.58;;
21103;SDS011;10710;53.398;-1.514;2023-07-13T03:23:18;4.22;;;2.60;;
21103;SDS011;10710;53.398;-1.514;2023-07-13T03:28:53;3.90;;;2.33;;
21103;SDS011;10710;53.398;-1.514;2023-07-13T03:31:37;4.80;;;2.30;;
21103;SDS011;10710;53.398;-1.514;2023-07-13T03:34:22;7.00;;;2.30;;
21103;SDS011;10710;53.398;-1.514;2023-07-13T03:37:06;8.07;;;1.95;;
21103;SDS011;10710;53.398;-1.514;2023-07-13T03:39:50;5.05;;;1.98;;
21103;SDS011;10710;53.398;-1.514;2023-07-13T03:42:35;5.90;;;2.50;;
21103;SDS011;10710;53.398;-1.514;2023-07-13T03:45:19;3.05;;;2.20;;
21103;SDS011;10710;53.398;-1.514;2023-07-13T03:48:04;2.90;;;1.77;;
21103;SDS011;10710;53.398;-1.514;2023-07-13T03:50:48;3.25;;;2.22;;
21103;SDS011;10710;53.398;-1.514;2023-07-13T03:53:34;4.15;;;2.13;;
21103;SDS011;10710;53.398;-1.514;2023-07-13T03:56:22;3.37;;;2.30;;
21103;SDS011;10710;53.398;-1.514;2023-07-13T03:59:07;5.05;;;2.42;;
21103;SDS011;10710;53.398;-1.514;2023-07-13T04:01:51;4.20;;;1.77;;
21103;SDS011;10710;53.398;-1.514;2023-07-13T04:04:35;3.40;;;2.25;;
21103;SDS011;10710;53.398;-1.514;2023-07-13T04:07:19;3.60;;;2.10;;
21103;SDS011;10710;53.398;-1.514;2023-07-13T04:10:04;3.17;;;1.67;;
21103;SDS011;10710;53.398;-1.514;2023-07-13T04:12:49;4.75;;;2.00;;
21103;SDS011;10710;53.398;-1.514;2023-07-13T04:15:33;3.72;;;1.80;;
21103;SDS011;10710;53.398;-1.514;2023-07-13T04:18:17;3.40;;;2.08;;
21103;SDS011;10710;53.398;-1.514;2023-07-13T04:21:03;5.72;;;1.75;;
21103;SDS011;10710;53.398;-1.514;2023-07-13T04:23:47;2.72;;;1.90;;
21103;SDS011;10710;53.398;-1.514;2023-07-13T04:26:32;6.82;;;2.15;;
21103;SDS011;10710;53.398;-1.514;2023-07-13T04:29:19;5.45;;;2.58;;
21103;SDS011;10710;53.398;-1.514;2023-07-13T04:32:03;2.80;;;1.73;;
21103;SDS011;10710;53.398;-1.514;2023-07-13T04:34:48;3.53;;;2.00;;
21103;SDS011;10710;53.398;-1.514;2023-07-13T04:37:36;1.90;;;1.70;;
21103;SDS011;10710;53.398;-1.514;2023-07-13T04:40:20;3.05;;;1.77;;
21103;SDS011;10710;53.398;-1.514;2023-07-13T04:43:04;3.40;;;2.03;;
21103;SDS011;10710;53.398;-1.514;2023-07-13T04:45:49;4.20;;;1.90;;
21103;SDS011;10710;53.398;-1.514;2023-07-13T04:48:35;7.60;;;1.92;;
21103;SDS011;10710;53.398;-1.514;2023-07-13T04:51:19;3.92;;;1.80;;
21103;SDS011;10710;53.398;-1.514;2023-07-13T04:54:04;4.07;;;2.10;;
21103;SDS011;10710;53.398;-1.514;2023-07-13T04:56:48;4.30;;;2.30;;
21103;SDS011;10710;53.398;-1.514;2023-07-13T04:59:32;2.17;;;1.50;;
21103;SDS011;10710;53.398;-1.514;2023-07-13T05:02:18;4.28;;;1.77;;
21103;SDS011;10710;53.398;-1.514;2023-07-13T05:05:04;3.28;;;1.90;;
21103;SDS011;10710;53.398;-1.514;2023-07-13T05:07:49;2.15;;;1.67;;
21103;SDS011;10710;53.398;-1.514;2023-07-13T05:10:34;2.10;;;1.60;;
21103;SDS011;10710;53.398;-1.514;2023-07-13T05:13:19;3.10;;;1.70;;
21103;SDS011;10710;53.398;-1.514;2023-07-13T05:16:05;5.43;;;2.15;;
21103;SDS011;10710;53.398;-1.514;2023-07-13T05:18:51;3.80;;;2.30;;
21103;SDS011;10710;53.398;-1.514;2023-07-13T05:21:35;4.50;;;2.45;;
21103;SDS011;10710;53.398;-1.514;2023-07-13T05:24:20;2.70;;;1.95;;
21103;SDS011;10710;53.398;-1.514;2023-07-13T05:27:04;3.97;;;1.93;;
21103;SDS011;10710;53.398;-1.514;2023-07-13T05:29:49;3.05;;;2.25;;
21103;SDS011;10710;53.398;-1.514;2023-07-13T05:32:33;2.55;;;2.10;;
21103;SDS011;10710;53.398;-1.514;2023-07-13T05:35:17;4.20;;;2.10;;
21103;SDS011;10710;53.398;-1.514;2023-07-13T05:38:01;3.53;;;2.25;;
21103;SDS011;10710;53.398;-1.514;2023-07-13T05:40:45;4.75;;;2.10;;
21103;SDS011;10710;53.398;-1.514;2023-07-13T05:43:30;3.77;;;2.00;;
21103;SDS011;10710;53.398;-1.514;2023-07-13T05:46:14;4.07;;;2.15;;
21103;SDS011;10710;53.398;-1.514;2023-07-13T05:48:59;3.00;;;1.70;;
21103;SDS011;10710;53.398;-1.514;2023-07-13T05:51:43;4.15;;;1.70;;
21103;SDS011;10710;53.398;-1.514;2023-07-13T05:54:27;6.55;;;1.80;;
21103;SDS011;10710;53.398;-1.514;2023-07-13T05:57:12;2.80;;;1.80;;
21103;SDS011;10710;53.398;-1.514;2023-07-13T05:59:56;3.72;;;1.75;;
21103;SDS011;10710;53.398;-1.514;2023-07-13T06:02:40;3.60;;;1.90;;
21103;SDS011;10710;53.398;-1.514;2023-07-13T06:05:24;4.95;;;2.20;;
21103;SDS011;10710;53.398;-1.514;2023-07-13T06:08:09;4.45;;;1.92;;
21103;SDS011;10710;53.398;-1.514;2023-07-13T06:10:53;4.25;;;1.60;;
21103;SDS011;10710;53.398;-1.514;2023-07-13T06:13:37;4.90;;;1.80;;
21103;SDS011;10710;53.398;-1.514;2023-07-13T06:16:21;1.63;;;1.40;;
21103;SDS011;10710;53.398;-1.514;2023-07-13T06:19:06;1.67;;;1.57;;
21103;SDS011;10710;53.398;-1.514;2023-07-13T06:21:51;2.63;;;1.40;;
21103;SDS011;10710;53.398;-1.514;2023-07-13T06:24:35;3.78;;;1.90;;
21103;SDS011;10710;53.398;-1.514;2023-07-13T06:27:19;2.30;;;1.48;;
21103;SDS011;10710;53.398;-1.514;2023-07-13T06:30:04;1.88;;;1.40;;
21103;SDS011;10710;53.398;-1.514;2023-07-13T06:32:49;2.20;;;1.60;;
21103;SDS011;10710;53.398;-1.514;2023-07-13T06:35:33;2.17;;;1.52;;
21103;SDS011;10710;53.398;-1.514;2023-07-13T06:38:17;2.80;;;1.40;;
21103;SDS011;10710;53.398;-1.514;2023-07-13T06:41:02;4.00;;;1.60;;
21103;SDS011;10710;53.398;-1.514;2023-07-13T06:43:46;1.90;;;1.67;;
21103;SDS011;10710;53.398;-1.514;2023-07-13T06:46:31;2.50;;;1.45;;
21103;SDS011;10710;53.398;-1.514;2023-07-13T06:49:15;2.13;;;1.45;;
21103;SDS011;10710;53.398;-1.514;2023-07-13T06:52:00;1.63;;;1.30;;
21103;SDS011;10710;53.398;-1.514;2023-07-13T06:54:45;5.22;;;1.65;;
21103;SDS011;10710;53.398;-1.514;2023-07-13T06:57:29;1.50;;;1.40;;
21103;SDS011;10710;53.398;-1.514;2023-07-13T07:00:13;1.67;;;1.50;;
21103;SDS011;10710;53.398;-1.514;2023-07-13T07:02:58;2.92;;;1.50;;
21103;SDS011;10710;53.398;-1.514;2023-07-13T07:05:42;3.20;;;1.70;;
21103;SDS011;10710;53.398;-1.514;2023-07-13T07:08:26;8.32;;;1.73;;
21103;SDS011;10710;53.398;-1.514;2023-07-13T07:11:14;2.95;;;1.58;;
21103;SDS011;10710;53.398;-1.514;2023-07-13T07:14:01;6.38;;;1.55;;
21103;SDS011;10710;53.398;-1.514;2023-07-13T07:16:45;2.75;;;1.40;;
21103;SDS011;10710;53.398;-1.514;2023-07-13T07:19:29;1.52;;;1.40;;
21103;SDS011;10710;53.398;-1.514;2023-07-13T07:22:14;5.10;;;2.38;;
21103;SDS011;10710;53.398;-1.514;2023-07-13T07:24:58;2.58;;;1.52;;
21103;SDS011;10710;53.398;-1.514;2023-07-13T07:27:43;3.00;;;1.70;;
21103;SDS011;10710;53.398;-1.514;2023-07-13T07:30:28;2.35;;;1.50;;
21103;SDS011;10710;53.398;-1.514;2023-07-13T07:33:13;2.38;;;1.35;;
21103;SDS011;10710;53.398;-1.514;2023-07-13T07:35:58;2.30;;;1.70;;
21103;SDS011;10710;53.398;-1.514;2023-07-13T07:38:42;1.45;;;1.35;;
21103;SDS011;10710;53.398;-1.514;2023-07-13T07:41:27;3.10;;;1.50;;
21103;SDS011;10710;53.398;-1.514;2023-07-13T07:44:11;4.40;;;1.40;;
21103;SDS011;10710;53.398;-1.514;2023-07-13T07:46:55;4.00;;;1.25;;
21103;SDS011;10710;53.398;-1.514;2023-07-13T07:49:39;2.65;;;1.58;;
21103;SDS011;10710;53.398;-1.514;2023-07-13T07:52:23;2.00;;;1.30;;
21103;SDS011;10710;53.398;-1.514;2023-07-13T07:55:08;2.22;;;1.70;;
21103;SDS011;10710;53.398;-1.514;2023-07-13T07:57:52;2.65;;;1.23;;
21103;SDS011;10710;53.398;-1.514;2023-07-13T08:00:37;1.98;;;1.23;;
21103;SDS011;10710;53.398;-1.514;2023-07-13T08:03:21;1.50;;;1.20;;
21103;SDS011;10710;53.398;-1.514;2023-07-13T08:06:05;2.67;;;1.30;;
21103;SDS011;10710;53.398;-1.514;2023-07-13T08:08:50;4.13;;;1.50;;
21103;SDS011;10710;53.398;-1.514;2023-07-13T08:11:34;3.45;;;1.10;;
21103;SDS011;10710;53.398;-1.514;2023-07-13T08:14:18;1.25;;;1.00;;
21103;SDS011;10710;53.398;-1.514;2023-07-13T08:17:03;3.08;;;1.48;;
21103;SDS011;10710;53.398;-1.514;2023-07-13T08:19:48;1.73;;;1.20;;
21103;SDS011;10710;53.398;-1.514;2023-07-13T08:22:32;1.05;;;0.98;;
21103;SDS011;10710;53.398;-1.514;2023-07-13T08:25:16;1.23;;;1.10;;
21103;SDS011;10710;53.398;-1.514;2023-07-13T08:28:02;2.00;;;1.20;;
21103;SDS011;10710;53.398;-1.514;2023-07-13T08:30:47;3.15;;;1.20;;
21103;SDS011;10710;53.398;-1.514;2023-07-13T08:33:35;1.20;;;1.00;;
21103;SDS011;10710;53.398;-1.514;2023-07-13T08:36:20;1.30;;;1.00;;
21103;SDS011;10710;53.398;-1.514;2023-07-13T08:39:04;1.90;;;1.00;;
21103;SDS011;10710;53.398;-1.514;2023-07-13T08:41:49;2.95;;;1.40;;
21103;SDS011;10710;53.398;-1.514;2023-07-13T08:47:48;2.80;;;1.20;;
21103;SDS011;10710;53.398;-1.514;2023-07-13T08:50:40;3.20;;;0.90;;
21103;SDS011;10710;53.398;-1.514;2023-07-13T08:53:46;2.40;;;1.33;;
21103;SDS011;10710;53.398;-1.514;2023-07-13T08:56:32;2.08;;;1.23;;
21103;SDS011;10710;53.398;-1.514;2023-07-13T08:59:17;2.20;;;1.50;;
21103;SDS011;10710;53.398;-1.514;2023-07-13T09:04:54;1.23;;;1.02;;
21103;SDS011;10710;53.398;-1.514;2023-07-13T09:13:34;1.98;;;1.38;;
21103;SDS011;10710;53.398;-1.514;2023-07-13T09:16:21;2.63;;;1.17;;
21103;SDS011;10710;53.398;-1.514;2023-07-13T09:19:07;1.83;;;1.20;;
21103;SDS011;10710;53.398;-1.514;2023-07-13T09:21:57;3.15;;;1.20;;
21103;SDS011;10710;53.398;-1.514;2023-07-13T09:27:42;3.05;;;1.10;;
21103;SDS011;10710;53.398;-1.514;2023-07-13T09:33:31;1.20;;;1.10;;
21103;SDS011;10710;53.398;-1.514;2023-07-13T09:36:26;1.92;;;1.13;;
21103;SDS011;10710;53.398;-1.514;2023-07-13T09:39:26;1.67;;;1.27;;
21103;SDS011;10710;53.398;-1.514;2023-07-13T09:42:20;1.60;;;1.08;;
21103;SDS011;10710;53.398;-1.514;2023-07-13T09:45:06;1.90;;;1.38;;
21103;SDS011;10710;53.398;-1.514;2023-07-13T09:47:50;1.50;;;1.10;;
21103;SDS011;10710;53.398;-1.514;2023-07-13T09:50:51;2.53;;;1.60;;
21103;SDS011;10710;53.398;-1.514;2023-07-13T09:53:43;2.45;;;1.60;;
21103;SDS011;10710;53.398;-1.514;2023-07-13T09:56:28;1.85;;;1.55;;
21103;SDS011;10710;53.398;-1.514;2023-07-13T09:59:20;2.45;;;1.40;;
21103;SDS011;10710;53.398;-1.514;2023-07-13T10:05:13;2.70;;;1.10;;
21103;SDS011;10710;53.398;-1.514;2023-07-13T10:08:00;1.30;;;0.93;;
21103;SDS011;10710;53.398;-1.514;2023-07-13T10:10:44;1.55;;;1.23;;
21103;SDS011;10710;53.398;-1.514;2023-07-13T10:13:33;1.93;;;1.20;;
21103;SDS011;10710;53.398;-1.514;2023-07-13T10:16:26;2.20;;;1.20;;
21103;SDS011;10710;53.398;-1.514;2023-07-13T10:19:24;2.25;;;1.38;;
21103;SDS011;10710;53.398;-1.514;2023-07-13T10:25:15;1.45;;;1.20;;
21103;SDS011;10710;53.398;-1.514;2023-07-13T10:28:03;2.08;;;1.58;;
21103;SDS011;10710;53.398;-1.514;2023-07-13T10:30:58;1.48;;;1.38;;
21103;SDS011;10710;53.398;-1.514;2023-07-13T10:33:45;4.38;;;1.50;;
21103;SDS011;10710;53.398;-1.514;2023-07-13T10:36:33;3.17;;;1.52;;
21103;SDS011;10710;53.398;-1.514;2023-07-13T10:39:23;4.68;;;1.77;;
21103;SDS011;10710;53.398;-1.514;2023-07-13T10:42:11;2.35;;;1.45;;
21103;SDS011;10710;53.398;-1.514;2023-07-13T10:45:16;2.40;;;1.80;;
21103;SDS011;10710;53.398;-1.514;2023-07-13T10:48:03;2.22;;;1.50;;
21103;SDS011;10710;53.398;-1.514;2023-07-13T10:50:50;4.25;;;1.73;;
21103;SDS011;10710;53.398;-1.514;2023-07-13T10:53:37;2.65;;;1.70;;
21103;SDS011;10710;53.398;-1.514;2023-07-13T10:56:28;3.40;;;1.48;;
21103;SDS011;10710;53.398;-1.514;2023-07-13T10:59:18;2.35;;;1.48;;
21103;SDS011;10710;53.398;-1.514;2023-07-13T11:02:11;2.88;;;1.77;;
21103;SDS011;10710;53.398;-1.514;2023-07-13T11:05:14;2.37;;;1.90;;
21103;SDS011;10710;53.398;-1.514;2023-07-13T11:08:24;3.42;;;2.15;;
21103;SDS011;10710;53.398;-1.514;2023-07-13T11:17:36;3.20;;;2.00;;
21103;SDS011;10710;53.398;-1.514;2023-07-13T11:20:35;2.72;;;1.90;;
21103;SDS011;10710;53.398;-1.514;2023-07-13T11:23:29;2.00;;;1.80;;
21103;SDS011;10710;53.398;-1.514;2023-07-13T11:29:37;3.60;;;1.80;;
21103;SDS011;10710;53.398;-1.514;2023-07-13T11:32:24;2.17;;;1.60;;
21103;SDS011;10710;53.398;-1.514;2023-07-13T11:35:22;1.92;;;1.65;;
21103;SDS011;10710;53.398;-1.514;2023-07-13T11:38:17;2.83;;;1.83;;
21103;SDS011;10710;53.398;-1.514;2023-07-13T11:41:06;2.58;;;1.88;;
21103;SDS011;10710;53.398;-1.514;2023-07-13T11:47:08;2.92;;;1.67;;
21103;SDS011;10710;53.398;-1.514;2023-07-13T11:50:00;4.43;;;2.17;;
21103;SDS011;10710;53.398;-1.514;2023-07-13T11:52:44;2.90;;;1.40;;
21103;SDS011;10710;53.398;-1.514;2023-07-13T11:55:29;1.83;;;1.33;;
21103;SDS011;10710;53.398;-1.514;2023-07-13T11:58:14;4.45;;;1.27;;
21103;SDS011;10710;53.398;-1.514;2023-07-13T12:01:04;2.47;;;1.20;;
21103;SDS011;10710;53.398;-1.514;2023-07-13T12:03:49;2.92;;;1.40;;
21103;SDS011;10710;53.398;-1.514;2023-07-13T12:06:35;3.00;;;1.40;;
21103;SDS011;10710;53.398;-1.514;2023-07-13T12:09:23;3.15;;;1.38;;
21103;SDS011;10710;53.398;-1.514;2023-07-13T12:12:17;2.30;;;1.40;;
21103;SDS011;10710;53.398;-1.514;2023-07-13T12:15:06;2.47;;;1.27;;
21103;SDS011;10710;53.398;-1.514;2023-07-13T12:17:52;2.55;;;1.35;;
21103;SDS011;10710;53.398;-1.514;2023-07-13T12:20:37;2.88;;;1.27;;
21103;SDS011;10710;53.398;-1.514;2023-07-13T12:23:30;1.77;;;1.23;;
21103;SDS011;10710;53.398;-1.514;2023-07-13T12:26:17;0.93;;;0.93;;
21103;SDS011;10710;53.398;-1.514;2023-07-13T12:29:04;1.45;;;0.95;;
21103;SDS011;10710;53.398;-1.514;2023-07-13T12:31:50;3.83;;;1.35;;
21103;SDS011;10710;53.398;-1.514;2023-07-13T12:34:49;1.10;;;1.00;;
21103;SDS011;10710;53.398;-1.514;2023-07-13T12:37:43;1.20;;;0.90;;
21103;SDS011;10710;53.398;-1.514;2023-07-13T12:40:33;3.90;;;1.20;;
21103;SDS011;10710;53.398;-1.514;2023-07-13T12:43:20;1.67;;;1.23;;
21103;SDS011;10710;53.398;-1.514;2023-07-13T12:46:19;1.17;;;1.00;;
21103;SDS011;10710;53.398;-1.514;2023-07-13T12:49:07;1.45;;;1.27;;
21103;SDS011;10710;53.398;-1.514;2023-07-13T12:51:55;1.10;;;0.93;;
21103;SDS011;10710;53.398;-1.514;2023-07-13T12:54:52;1.73;;;1.10;;
21103;SDS011;10710;53.398;-1.514;2023-07-13T12:57:47;1.17;;;0.98;;
21103;SDS011;10710;53.398;-1.514;2023-07-13T13:00:36;2.90;;;1.13;;
21103;SDS011;10710;53.398;-1.514;2023-07-13T13:03:24;1.70;;;1.33;;
21103;SDS011;10710;53.398;-1.514;2023-07-13T13:09:05;2.30;;;1.10;;
21103;SDS011;10710;53.398;-1.514;2023-07-13T13:11:57;1.85;;;1.00;;
21103;SDS011;10710;53.398;-1.514;2023-07-13T13:14:42;2.22;;;1.27;;
21103;SDS011;10710;53.398;-1.514;2023-07-13T13:17:28;1.08;;;0.98;;
21103;SDS011;10710;53.398;-1.514;2023-07-13T13:20:16;2.05;;;1.08;;
21103;SDS011;10710;53.398;-1.514;2023-07-13T13:23:01;1.58;;;1.20;;
21103;SDS011;10710;53.398;-1.514;2023-07-13T13:25:46;3.37;;;1.20;;
21103;SDS011;10710;53.398;-1.514;2023-07-13T13:28:33;2.00;;;1.20;;
21103;SDS011;10710;53.398;-1.514;2023-07-13T13:31:17;2.97;;;1.10;;
21103;SDS011;10710;53.398;-1.514;2023-07-13T13:34:01;1.80;;;1.00;;
21103;SDS011;10710;53.398;-1.514;2023-07-13T13:36:46;1.30;;;1.20;;
21103;SDS011;10710;53.398;-1.514;2023-07-13T13:39:34;4.45;;;2.50;;
21103;SDS011;10710;53.398;-1.514;2023-07-13T13:42:23;4.10;;;1.30;;
21103;SDS011;10710;53.398;-1.514;2023-07-13T13:45:09;1.40;;;1.23;;
21103;SDS011;10710;53.398;-1.514;2023-07-13T13:47:54;1.30;;;1.20;;
21103;SDS011;10710;53.398;-1.514;2023-07-13T13:50:38;2.05;;;1.60;;
21103;SDS011;10710;53.398;-1.514;2023-07-13T13:53:24;3.10;;;1.67;;
21103;SDS011;10710;53.398;-1.514;2023-07-13T13:56:08;3.20;;;1.30;;
21103;SDS011;10710;53.398;-1.514;2023-07-13T13:58:53;2.95;;;1.30;;
21103;SDS011;10710;53.398;-1.514;2023-07-13T14:01:37;3.47;;;1.35;;
21103;SDS011;10710;53.398;-1.514;2023-07-13T14:04:22;1.60;;;1.13;;
21103;SDS011;10710;53.398;-1.514;2023-07-13T14:07:07;1.77;;;1.17;;
21103;SDS011;10710;53.398;-1.514;2023-07-13T14:10:00;1.45;;;1.17;;
21103;SDS011;10710;53.398;-1.514;2023-07-13T14:12:50;2.47;;;1.20;;
21103;SDS011;10710;53.398;-1.514;2023-07-13T14:15:36;2.72;;;1.20;;
21103;SDS011;10710;53.398;-1.514;2023-07-13T14:18:20;2.03;;;1.20;;
21103;SDS011;10710;53.398;-1.514;2023-07-13T14:21:08;1.77;;;1.15;;
21103;SDS011;10710;53.398;-1.514;2023-07-13T14:23:58;2.25;;;1.30;;
21103;SDS011;10710;53.398;-1.514;2023-07-13T14:26:42;2.40;;;1.20;;
21103;SDS011;10710;53.398;-1.514;2023-07-13T14:29:27;2.40;;;1.73;;
21103;SDS011;10710;53.398;-1.514;2023-07-13T14:32:11;1.50;;;1.30;;
21103;SDS011;10710;53.398;-1.514;2023-07-13T14:34:56;1.90;;;1.03;;
21103;SDS011;10710;53.398;-1.514;2023-07-13T14:37:41;1.40;;;1.00;;
21103;SDS011;10710;53.398;-1.514;2023-07-13T14:40:28;2.03;;;1.10;;
21103;SDS011;10710;53.398;-1.514;2023-07-13T14:43:15;2.42;;;1.17;;
21103;SDS011;10710;53.398;-1.514;2023-07-13T14:46:00;1.63;;;1.20;;
21103;SDS011;10710;53.398;-1.514;2023-07-13T14:48:44;2.25;;;1.50;;
21103;SDS011;10710;53.398;-1.514;2023-07-13T14:51:29;1.67;;;1.20;;
21103;SDS011;10710;53.398;-1.514;2023-07-13T14:54:14;1.65;;;1.13;;
21103;SDS011;10710;53.398;-1.514;2023-07-13T14:56:58;3.05;;;1.42;;
21103;SDS011;10710;53.398;-1.514;2023-07-13T14:59:43;1.95;;;1.17;;
21103;SDS011;10710;53.398;-1.514;2023-07-13T15:02:31;3.53;;;1.30;;
21103;SDS011;10710;53.398;-1.514;2023-07-13T15:05:28;3.05;;;1.33;;
21103;SDS011;10710;53.398;-1.514;2023-07-13T15:08:14;2.40;;;1.33;;
21103;SDS011;10710;53.398;-1.514;2023-07-13T15:10:59;3.70;;;1.40;;
21103;SDS011;10710;53.398;-1.514;2023-07-13T15:13:44;2.10;;;1.10;;
21103;SDS011;10710;53.398;-1.514;2023-07-13T15:16:32;3.88;;;1.52;;
21103;SDS011;10710;53.398;-1.514;2023-07-13T15:19:17;2.35;;;1.38;;
21103;SDS011;10710;53.398;-1.514;2023-07-13T15:22:03;4.60;;;1.63;;
21103;SDS011;10710;53.398;-1.514;2023-07-13T15:24:49;4.10;;;1.43;;
21103;SDS011;10710;53.398;-1.514;2023-07-13T15:27:33;2.90;;;1.50;;
21103;SDS011;10710;53.398;-1.514;2023-07-13T15:30:20;2.38;;;1.35;;
21103;SDS011;10710;53.398;-1.514;2023-07-13T15:33:10;1.60;;;1.30;;
21103;SDS011;10710;53.398;-1.514;2023-07-13T15:36:08;2.17;;;1.40;;
21103;SDS011;10710;53.398;-1.514;2023-07-13T15:38:54;1.80;;;1.30;;
21103;SDS011;10710;53.398;-1.514;2023-07-13T15:41:39;1.88;;;1.23;;
21103;SDS011;10710;53.398;-1.514;2023-07-13T15:44:28;1.88;;;1.33;;
21103;SDS011;10710;53.398;-1.514;2023-07-13T15:47:14;2.50;;;1.40;;
21103;SDS011;10710;53.398;-1.514;2023-07-13T15:49:59;2.17;;;1.13;;
21103;SDS011;10710;53.398;-1.514;2023-07-13T15:52:44;1.85;;;1.13;;
21103;SDS011;10710;53.398;-1.514;2023-07-13T15:55:31;1.10;;;1.00;;
21103;SDS011;10710;53.398;-1.514;2023-07-13T15:58:16;1.67;;;1.27;;
21103;SDS011;10710;53.398;-1.514;2023-07-13T16:01:01;2.13;;;1.33;;
21103;SDS011;10710;53.398;-1.514;2023-07-13T16:03:46;1.73;;;1.30;;
21103;SDS011;10710;53.398;-1.514;2023-07-13T16:06:31;2.85;;;1.50;;
21103;SDS011;10710;53.398;-1.514;2023-07-13T16:09:19;2.57;;;1.07;;
21103;SDS011;10710;53.398;-1.514;2023-07-13T16:12:09;2.60;;;1.35;;
21103;SDS011;10710;53.398;-1.514;2023-07-13T16:14:57;2.53;;;1.48;;
21103;SDS011;10710;53.398;-1.514;2023-07-13T16:17:42;1.90;;;1.48;;
21103;SDS011;10710;53.398;-1.514;2023-07-13T16:20:27;1.30;;;1.20;;
21103;SDS011;10710;53.398;-1.514;2023-07-13T16:23:12;2.53;;;1.52;;
21103;SDS011;10710;53.398;-1.514;2023-07-13T16:25:58;1.85;;;1.58;;
21103;SDS011;10710;53.398;-1.514;2023-07-13T16:28:42;2.35;;;1.40;;
21103;SDS011;10710;53.398;-1.514;2023-07-13T16:31:30;2.30;;;1.50;;
21103;SDS011;10710;53.398;-1.514;2023-07-13T16:34:16;1.83;;;1.20;;
21103;SDS011;10710;53.398;-1.514;2023-07-13T16:37:00;2.60;;;1.60;;
21103;SDS011;10710;53.398;-1.514;2023-07-13T16:39:50;1.70;;;1.60;;
21103;SDS011;10710;53.398;-1.514;2023-07-13T16:42:36;2.45;;;1.83;;
21103;SDS011;10710;53.398;-1.514;2023-07-13T16:45:22;2.78;;;1.50;;
21103;SDS011;10710;53.398;-1.514;2023-07-13T16:48:14;2.92;;;1.35;;
21103;SDS011;10710;53.398;-1.514;2023-07-13T16:51:00;2.58;;;1.80;;
21103;SDS011;10710;53.398;-1.514;2023-07-13T16:53:44;4.57;;;1.58;;
21103;SDS011;10710;53.398;-1.514;2023-07-13T16:56:28;3.42;;;1.55;;
21103;SDS011;10710;53.398;-1.514;2023-07-13T16:59:17;1.73;;;1.25;;
21103;SDS011;10710;53.398;-1.514;2023-07-13T17:02:02;3.08;;;1.30;;
21103;SDS011;10710;53.398;-1.514;2023-07-13T17:05:21;2.13;;;1.30;;
21103;SDS011;10710;53.398;-1.514;2023-07-13T17:08:11;3.45;;;1.40;;
21103;SDS011;10710;53.398;-1.514;2023-07-13T17:11:00;2.53;;;1.20;;
21103;SDS011;10710;53.398;-1.514;2023-07-13T17:13:45;2.63;;;1.30;;